createdAt,value
2022-10-24T00:00:18.929Z,101442.35
2022-10-24T00:03:09.149Z,101440.83
2022-10-24T00:05:42.533Z,101434.71
2022-10-24T00:08:12.629Z,101430.84
2022-10-24T00:10:44.416Z,101436.14
2022-10-24T00:13:17.681Z,101431.80
2022-10-24T00:15:49.209Z,101429.85
2022-10-24T00:18:18.148Z,101430.06
2022-10-24T00:20:47.452Z,101424.23
2022-10-24T00:23:17.018Z,101428.20
2022-10-24T00:25:46.611Z,101431.37
2022-10-24T00:28:16.585Z,101433.35
2022-10-24T00:30:46.138Z,101435.23
2022-10-24T00:33:15.126Z,101432.80
2022-10-24T00:35:44.068Z,101434.10
2022-10-24T00:38:13.142Z,101429.16
2022-10-24T00:40:42.947Z,101433.09
2022-10-24T00:43:16.842Z,101432.17
2022-10-24T00:45:48.567Z,101439.25
2022-10-24T00:48:21.406Z,101438.45
2022-10-24T00:50:53.079Z,101442.86
2022-10-24T00:53:24.877Z,101449.32
2022-10-24T00:55:56.299Z,101451.08
2022-10-24T00:58:28.546Z,101455.53
2022-10-24T01:00:57.463Z,101458.34
2022-10-24T01:03:26.886Z,101455.33
2022-10-24T01:06:23.681Z,101455.70
2022-10-24T01:08:58.834Z,101452.15
2022-10-24T01:11:42.581Z,101457.06
2022-10-24T01:14:21.779Z,101457.20
2022-10-24T01:16:58.403Z,101462.29
2022-10-24T01:19:42.355Z,101457.65
2022-10-24T01:22:17.518Z,101455.36
2022-10-24T01:24:56.522Z,101456.30
2022-10-24T01:27:42.090Z,101456.09
2022-10-24T01:30:12.430Z,101452.28
2022-10-24T01:32:46.844Z,101451.91
2022-10-24T01:35:25.514Z,101449.80
2022-10-24T01:38:01.366Z,101441.39
2022-10-24T01:40:34.154Z,101428.25
2022-10-24T01:43:02.284Z,101422.41
2022-10-24T01:45:34.603Z,101420.28
2022-10-24T01:48:07.461Z,101419.30
2022-10-24T01:50:37.822Z,101417.13
2022-10-24T01:53:08.543Z,101418.95
2022-10-24T01:55:38.025Z,101422.58
2022-10-24T01:58:07.939Z,101422.48
2022-10-24T02:00:36.974Z,101417.80
2022-10-24T02:03:12.172Z,101414.29
2022-10-24T02:05:44.190Z,101409.73
2022-10-24T02:08:16.114Z,101407.83
2022-10-24T02:10:49.367Z,101416.06
2022-10-24T02:13:26.421Z,101418.35
2022-10-24T02:15:57.626Z,101421.78
2022-10-24T02:18:26.899Z,101417.91
2022-10-24T02:20:57.931Z,101418.21
2022-10-24T02:23:34.175Z,101414.16
2022-10-24T02:26:07.074Z,101417.98
2022-10-24T02:28:41.018Z,101424.08
2022-10-24T02:31:12.833Z,101430.23
2022-10-24T02:33:42.172Z,101432.14
2022-10-24T02:36:12.948Z,101426.99
2022-10-24T02:38:44.632Z,101413.54
2022-10-24T02:41:17.279Z,101404.23
2022-10-24T02:43:45.098Z,101406.14
2022-10-24T02:46:14.919Z,101408.33
2022-10-24T02:48:47.574Z,101398.15
2022-10-24T02:51:18.769Z,101393.13
2022-10-24T02:53:48.128Z,101398.66
2022-10-24T02:56:17.046Z,101401.35
2022-10-24T02:58:46.117Z,101404.52
2022-10-24T03:01:15.152Z,101406.93
2022-10-24T03:03:44.266Z,101408.33
2022-10-24T03:06:13.299Z,101402.13
2022-10-24T03:08:42.437Z,101401.39
2022-10-24T03:11:11.514Z,101397.77
2022-10-24T03:13:40.381Z,101397.61
2022-10-24T03:16:11.717Z,101394.46
2022-10-24T03:18:43.173Z,101391.23
2022-10-24T03:21:12.185Z,101391.59
2022-10-24T03:23:41.076Z,101397.48
2022-10-24T03:26:09.957Z,101404.58
2022-10-24T03:28:38.865Z,101412.77
2022-10-24T03:31:08.004Z,101419.63
2022-10-24T03:33:37.034Z,101420.96
2022-10-24T03:36:06.805Z,101423.38
2022-10-24T03:38:35.772Z,101425.09
2022-10-24T03:41:05.245Z,101425.81
2022-10-24T03:43:34.442Z,101422.86
2022-10-24T03:46:03.644Z,101423.97
2022-10-24T03:48:32.593Z,101425.80
2022-10-24T03:51:01.534Z,101420.30
2022-10-24T03:53:30.435Z,101420.15
2022-10-24T03:56:00.061Z,101422.24
2022-10-24T03:58:29.117Z,101423.15
2022-10-24T04:00:58.844Z,101416.72
2022-10-24T04:03:28.491Z,101414.73
2022-10-24T04:05:57.521Z,101411.52
2022-10-24T04:08:26.501Z,101411.06
2022-10-24T04:10:55.704Z,101412.56
2022-10-24T04:13:24.744Z,101409.65
2022-10-24T04:15:53.876Z,101410.83
2022-10-24T04:18:22.864Z,101410.45
2022-10-24T04:20:51.817Z,101406.64
2022-10-24T04:23:20.692Z,101400.27
2022-10-24T04:25:49.995Z,101395.08
2022-10-24T04:28:19.406Z,101399.70
2022-10-24T04:30:56.239Z,101407.95
2022-10-24T04:33:25.725Z,101408.35
2022-10-24T04:35:55.184Z,101406.42
2022-10-24T04:38:24.819Z,101406.88
2022-10-24T04:40:56.862Z,101405.08
2022-10-24T04:43:25.786Z,101406.58
2022-10-24T04:45:54.589Z,101403.83
2022-10-24T04:48:23.522Z,101407.98
2022-10-24T04:50:52.316Z,101407.42
2022-10-24T04:53:21.296Z,101409.57
2022-10-24T04:55:50.202Z,101407.98
2022-10-24T04:58:19.285Z,101409.42
2022-10-24T05:00:49.749Z,101407.26
2022-10-24T05:03:19.988Z,101411.35
2022-10-24T05:05:49.178Z,101417.04
2022-10-24T05:08:18.565Z,101411.55
2022-10-24T05:10:48.225Z,101415.44
2022-10-24T05:13:17.339Z,101417.29
2022-10-24T05:15:46.169Z,101420.52
2022-10-24T05:18:14.969Z,101423.17
2022-10-24T05:20:43.760Z,101427.25
2022-10-24T05:23:12.686Z,101426.10
2022-10-24T05:25:41.596Z,101432.63
2022-10-24T05:28:10.424Z,101438.57
2022-10-24T05:30:39.431Z,101441.58
2022-10-24T05:33:08.272Z,101442.91
2022-10-24T05:35:37.465Z,101444.20
2022-10-24T05:38:06.421Z,101442.66
2022-10-24T05:40:35.413Z,101440.66
2022-10-24T05:43:04.507Z,101439.27
2022-10-24T05:45:33.396Z,101440.56
2022-10-24T05:48:02.269Z,101446.37
2022-10-24T05:50:31.198Z,101447.91
2022-10-24T05:52:59.965Z,101449.48
2022-10-24T05:55:30.725Z,101449.60
2022-10-24T05:57:59.831Z,101453.91
2022-10-24T06:00:28.975Z,101453.95
2022-10-24T06:02:57.977Z,101463.38
2022-10-24T06:05:27.002Z,101466.89
2022-10-24T06:07:56.338Z,101463.66
2022-10-24T06:10:25.793Z,101462.93
2022-10-24T06:12:55.260Z,101464.95
2022-10-24T06:15:24.853Z,101466.87
2022-10-24T06:17:53.945Z,101466.48
2022-10-24T06:20:22.770Z,101475.25
2022-10-24T06:22:51.573Z,101473.85
2022-10-24T06:25:20.546Z,101466.33
2022-10-24T06:27:49.409Z,101457.57
2022-10-24T06:30:18.720Z,101461.50
2022-10-24T06:32:47.856Z,101459.23
2022-10-24T06:35:18.570Z,101455.98
2022-10-24T06:37:48.378Z,101457.23
2022-10-24T06:40:19.949Z,101458.44
2022-10-24T06:42:49.121Z,101457.67
2022-10-24T06:45:20.727Z,101459.13
2022-10-24T06:47:52.012Z,101456.86
2022-10-24T06:50:32.015Z,101458.95
2022-10-24T06:53:01.441Z,101463.43
2022-10-24T06:55:30.326Z,101466.16
2022-10-24T06:57:59.321Z,101461.71
2022-10-24T07:03:02.239Z,101469.45
2022-10-24T07:05:31.541Z,101465.63
2022-10-24T07:08:00.686Z,101469.73
2022-10-24T07:10:29.756Z,101472.70
2022-10-24T07:12:59.095Z,101472.55
2022-10-24T07:15:28.117Z,101469.45
2022-10-24T07:17:59.980Z,101463.86
2022-10-24T07:20:28.961Z,101463.15
2022-10-24T07:22:57.874Z,101463.14
2022-10-24T07:25:26.761Z,101462.69
2022-10-24T07:27:56.873Z,101461.53
2022-10-24T07:30:26.015Z,101455.27
2022-10-24T07:32:55.477Z,101453.80
2022-10-24T07:35:24.254Z,101449.43
2022-10-24T07:37:53.489Z,101443.61
2022-10-24T07:40:22.678Z,101442.63
2022-10-24T07:42:51.560Z,101441.41
2022-10-24T07:45:20.720Z,101441.73
2022-10-24T07:47:49.643Z,101441.89
2022-10-24T07:50:18.781Z,101444.23
2022-10-24T07:52:47.598Z,101444.86
2022-10-24T07:55:16.689Z,101439.11
2022-10-24T07:57:45.711Z,101434.30
2022-10-24T08:00:16.868Z,101425.30
2022-10-24T08:02:45.688Z,101429.73
2022-10-24T08:05:17.043Z,101434.13
2022-10-24T08:07:56.262Z,101437.48
2022-10-24T08:10:38.114Z,101438.73
2022-10-24T08:13:10.318Z,101438.70
2022-10-24T08:15:42.417Z,101438.86
2022-10-24T08:18:11.323Z,101435.95
2022-10-24T08:20:40.189Z,101435.02
2022-10-24T08:23:09.378Z,101435.59
2022-10-24T08:25:42.173Z,101435.16
2022-10-24T08:28:11.519Z,101438.09
2022-10-24T08:30:40.809Z,101438.96
2022-10-24T08:33:09.757Z,101436.64
2022-10-24T08:35:38.898Z,101432.61
2022-10-24T08:38:08.455Z,101431.98
2022-10-24T08:40:37.690Z,101428.46
2022-10-24T08:43:06.881Z,101436.59
2022-10-24T08:45:42.193Z,101434.40
2022-10-24T08:48:14.694Z,101427.33
2022-10-24T08:50:47.513Z,101428.08
2022-10-24T08:53:21.576Z,101427.71
2022-10-24T08:55:53.371Z,101423.39
2022-10-24T08:58:25.141Z,101421.31
2022-10-24T09:00:55.666Z,101415.11
2022-10-24T09:03:43.846Z,101417.00
2022-10-24T09:06:20.221Z,101415.41
2022-10-24T09:08:53.206Z,101412.62
2022-10-24T09:11:27.837Z,101413.29
2022-10-24T09:13:57.449Z,101414.27
2022-10-24T09:16:27.330Z,101415.38
2022-10-24T09:18:58.054Z,101417.27
2022-10-24T09:21:27.471Z,101415.05
2022-10-24T09:23:56.797Z,101411.19
2022-10-24T09:26:29.282Z,101408.61
2022-10-24T09:28:59.249Z,101399.85
2022-10-24T09:31:28.898Z,101395.36
2022-10-24T09:33:59.919Z,101395.29
2022-10-24T09:36:31.144Z,101396.57
2022-10-24T09:39:24.993Z,101394.70
2022-10-24T09:41:54.895Z,101389.38
2022-10-24T09:44:37.840Z,101391.33
2022-10-24T09:47:23.523Z,101395.69
2022-10-24T09:49:53.908Z,101392.94
2022-10-24T09:52:25.109Z,101386.70
2022-10-24T09:55:16.361Z,101375.58
2022-10-24T09:57:45.717Z,101371.23
2022-10-24T10:00:24.103Z,101369.65
2022-10-24T10:03:05.076Z,101365.31
2022-10-24T10:05:46.074Z,101367.80
2022-10-24T10:08:20.801Z,101363.27
2022-10-24T10:11:01.501Z,101359.59
2022-10-24T10:13:31.155Z,101359.61
2022-10-24T10:16:01.822Z,101357.09
2022-10-24T10:18:34.160Z,101353.72
2022-10-24T10:21:09.945Z,101352.63
2022-10-24T10:23:41.550Z,101352.06
2022-10-24T10:26:27.984Z,101356.06
2022-10-24T10:28:59.880Z,101350.54
2022-10-24T10:31:34.904Z,101346.09
2022-10-24T10:34:21.406Z,101342.02
2022-10-24T10:37:26.992Z,101336.04
2022-10-24T10:40:07.593Z,101336.95
2022-10-24T10:42:46.617Z,101334.55
2022-10-24T10:45:20.011Z,101335.83
2022-10-24T10:48:01.963Z,101332.20
2022-10-24T10:50:37.751Z,101326.05
2022-10-24T10:53:21.688Z,101324.52
2022-10-24T10:55:57.498Z,101315.36
2022-10-24T10:58:38.947Z,101313.79
2022-10-24T11:01:15.739Z,101314.90
2022-10-24T11:04:13.989Z,101306.73
2022-10-24T11:06:52.093Z,101304.96
2022-10-24T11:09:29.127Z,101306.54
2022-10-24T11:12:06.571Z,101308.16
2022-10-24T11:14:38.228Z,101307.38
2022-10-24T11:17:13.638Z,101310.88
2022-10-24T11:19:49.535Z,101306.88
2022-10-24T11:22:23.102Z,101304.54
2022-10-24T11:24:58.853Z,101300.63
2022-10-24T11:27:35.603Z,101298.02
2022-10-24T11:30:11.597Z,101298.48
2022-10-24T11:32:45.046Z,101294.24
2022-10-24T11:35:20.030Z,101287.86
2022-10-24T11:37:50.813Z,101286.16
2022-10-24T11:40:21.764Z,101285.85
2022-10-24T11:42:54.063Z,101283.50
2022-10-24T11:45:26.411Z,101278.48
2022-10-24T11:48:11.825Z,101274.10
2022-10-24T11:50:47.801Z,101266.50
2022-10-24T11:53:41.606Z,101264.79
2022-10-24T11:56:33.428Z,101257.52
2022-10-24T11:59:17.812Z,101253.69
2022-10-24T12:02:18.803Z,101250.50
2022-10-24T12:05:25.147Z,101244.67
2022-10-24T12:08:49.713Z,101239.44
2022-10-24T12:11:54.966Z,101235.01
2022-10-24T12:14:53.368Z,101229.70
2022-10-24T12:17:37.621Z,101227.28
2022-10-24T12:20:12.070Z,101222.33
2022-10-24T12:26:18.801Z,101214.36
2022-10-24T12:28:59.712Z,101209.63
2022-10-24T12:31:33.775Z,101209.59
2022-10-24T12:34:55.146Z,101207.38
2022-10-24T12:37:39.560Z,101202.03
2022-10-24T12:40:52.894Z,101204.69
2022-10-24T12:43:34.127Z,101209.40
2022-10-24T12:46:43.771Z,101207.87
2022-10-24T12:49:26.388Z,101208.38
2022-10-24T12:51:59.684Z,101203.38
2022-10-24T12:54:44.303Z,101200.92
2022-10-24T12:57:31.722Z,101196.13
2022-10-24T13:00:06.373Z,101199.95
2022-10-24T13:02:59.383Z,101199.69
2022-10-24T13:05:56.065Z,101205.07
2022-10-24T13:08:57.341Z,101210.73
2022-10-24T13:11:48.039Z,101208.23
2022-10-24T13:14:50.306Z,101208.65
2022-10-24T13:17:33.268Z,101207.98
2022-10-24T13:20:36.314Z,101204.42
2022-10-24T13:29:07.478Z,101189.64
2022-10-24T13:31:50.010Z,101190.92
2022-10-24T13:34:43.357Z,101186.95
2022-10-24T13:37:25.287Z,101177.08
2022-10-24T13:40:10.907Z,101172.52
2022-10-24T13:42:53.110Z,101173.13
2022-10-24T13:45:43.083Z,101170.84
2022-10-24T13:48:25.303Z,101168.21
2022-10-24T13:51:19.744Z,101166.40
2022-10-24T13:53:57.028Z,101170.36
2022-10-24T13:56:32.873Z,101170.98
2022-10-24T13:59:08.310Z,101167.61
2022-10-24T14:01:49.345Z,101167.71
2022-10-24T14:04:42.828Z,101167.23
2022-10-24T14:07:22.776Z,101166.61
2022-10-24T14:09:58.920Z,101160.98
2022-10-24T14:12:34.780Z,101161.89
2022-10-24T14:15:16.749Z,101162.48
2022-10-24T14:18:04.835Z,101161.73
2022-10-24T14:20:39.873Z,101161.34
2022-10-24T14:23:28.187Z,101162.78
2022-10-24T14:26:10.080Z,101156.08
2022-10-24T14:29:00.156Z,101154.00
2022-10-24T14:31:37.662Z,101156.40
2022-10-24T14:34:25.300Z,101154.98
2022-10-24T14:37:19.538Z,101147.91
2022-10-24T14:39:56.483Z,101150.20
2022-10-24T14:42:51.797Z,101145.27
2022-10-24T14:45:32.521Z,101144.23
2022-10-24T14:48:25.255Z,101138.45
2022-10-24T14:51:09.685Z,101130.03
2022-10-24T14:53:43.799Z,101134.18
2022-10-24T14:56:31.843Z,101133.63
2022-10-24T14:59:17.618Z,101130.84
2022-10-24T15:01:58.936Z,101132.15
2022-10-24T15:04:39.645Z,101133.95
2022-10-24T15:07:30.677Z,101135.02
2022-10-24T15:10:21.949Z,101127.35
2022-10-24T15:13:17.004Z,101125.08
2022-10-24T15:15:56.732Z,101123.23
2022-10-24T15:18:32.087Z,101120.70
2022-10-24T15:21:15.686Z,101122.96
2022-10-24T15:23:51.608Z,101124.91
2022-10-24T15:26:27.833Z,101125.53
2022-10-24T15:29:09.293Z,101126.14
2022-10-24T15:31:44.008Z,101129.23
2022-10-24T15:34:24.273Z,101129.10
2022-10-24T15:37:11.357Z,101130.81
2022-10-24T15:40:05.005Z,101134.33
2022-10-24T15:42:47.456Z,101135.74
2022-10-24T15:45:22.277Z,101133.31
2022-10-24T15:47:55.319Z,101130.89
2022-10-24T15:50:27.620Z,101131.41
2022-10-24T15:53:05.475Z,101139.25
2022-10-24T15:55:39.873Z,101140.96
2022-10-24T15:58:16.288Z,101145.25
2022-10-24T16:00:51.289Z,101148.05
2022-10-24T16:03:27.093Z,101150.86
2022-10-24T16:06:05.812Z,101151.95
2022-10-24T16:08:40.860Z,101151.80
2022-10-24T16:11:14.613Z,101151.52
2022-10-24T16:13:47.695Z,101158.64
2022-10-24T16:16:25.722Z,101153.61
2022-10-24T16:19:03.216Z,101159.69
2022-10-24T16:21:40.065Z,101156.14
2022-10-24T16:24:17.642Z,101154.77
2022-10-24T16:26:56.428Z,101159.70
2022-10-24T16:29:33.670Z,101160.17
2022-10-24T16:32:08.561Z,101160.56
2022-10-24T16:34:51.043Z,101153.89
2022-10-24T16:37:26.882Z,101155.08
2022-10-24T16:40:00.003Z,101157.01
2022-10-24T16:42:33.589Z,101156.27
2022-10-24T16:45:07.322Z,101160.80
2022-10-24T16:47:39.676Z,101160.00
2022-10-24T16:50:12.775Z,101158.54
2022-10-24T16:52:47.209Z,101156.83
2022-10-24T16:55:21.016Z,101162.52
2022-10-24T16:57:53.635Z,101162.15
2022-10-24T17:00:26.867Z,101159.00
2022-10-24T17:03:01.494Z,101162.02
2022-10-24T17:05:34.634Z,101161.42
2022-10-24T17:08:11.971Z,101158.13
2022-10-24T17:10:49.747Z,101156.33
2022-10-24T17:13:24.384Z,101148.73
2022-10-24T17:16:00.389Z,101153.58
2022-10-24T17:19:04.756Z,101152.70
2022-10-24T17:21:43.260Z,101151.38
2022-10-24T17:24:21.217Z,101153.27
2022-10-24T17:26:56.516Z,101151.21
2022-10-24T17:29:31.667Z,101154.65
2022-10-24T17:32:06.196Z,101156.61
2022-10-24T17:34:39.451Z,101154.25
2022-10-24T17:37:20.121Z,101151.73
2022-10-24T17:39:54.126Z,101147.41
2022-10-24T17:42:27.265Z,101153.83
2022-10-24T17:45:00.242Z,101155.54
2022-10-24T17:47:34.427Z,101155.73
2022-10-24T17:50:07.986Z,101153.45
2022-10-24T17:52:44.010Z,101155.27
2022-10-24T17:55:45.242Z,101157.39
2022-10-24T17:58:29.116Z,101158.08
2022-10-24T18:01:18.824Z,101157.58
2022-10-24T18:03:53.087Z,101152.87
2022-10-24T18:06:26.392Z,101152.92
2022-10-24T18:09:10.608Z,101151.67
2022-10-24T18:11:47.909Z,101147.75
2022-10-24T18:14:20.254Z,101149.81
2022-10-24T18:19:45.369Z,101149.73
2022-10-24T18:22:18.531Z,101149.27
2022-10-24T18:25:06.923Z,101151.86
2022-10-24T18:28:02.496Z,101154.03
2022-10-24T18:31:12.160Z,101144.24
2022-10-24T18:33:56.020Z,101140.52
2022-10-24T18:36:57.911Z,101140.93
2022-10-24T18:40:12.751Z,101138.13
2022-10-24T18:46:33.293Z,101133.04
2022-10-24T18:49:15.822Z,101131.48
2022-10-24T18:51:57.160Z,101127.24
2022-10-24T19:08:20.309Z,101126.45
2022-10-24T19:10:56.821Z,101120.55
2022-10-24T19:16:48.373Z,101118.91
2022-10-24T19:25:46.761Z,101114.84
2022-10-24T19:28:21.020Z,101112.66
2022-10-24T19:31:04.016Z,101117.96
2022-10-24T19:33:44.375Z,101118.73
2022-10-24T19:36:24.161Z,101119.30
2022-10-24T19:39:01.350Z,101116.02
2022-10-24T19:41:38.249Z,101117.27
2022-10-24T19:44:14.212Z,101112.39
2022-10-24T19:46:48.574Z,101114.06
2022-10-24T19:49:19.658Z,101112.87
2022-10-24T19:52:02.296Z,101111.50
2022-10-24T19:54:54.706Z,101108.35
2022-10-24T19:57:29.626Z,101102.73
2022-10-24T20:00:06.366Z,101104.27
2022-10-24T20:02:39.289Z,101103.25
2022-10-24T20:05:14.762Z,101097.98
2022-10-24T20:07:52.132Z,101103.09
2022-10-24T20:10:27.048Z,101100.86
2022-10-24T20:13:03.064Z,101097.38
2022-10-24T20:15:40.605Z,101100.42
2022-10-24T20:18:16.019Z,101101.23
2022-10-24T20:20:50.106Z,101100.84
2022-10-24T20:23:21.016Z,101099.89
2022-10-24T20:26:01.001Z,101100.61
2022-10-24T20:28:38.036Z,101097.85
2022-10-24T20:31:20.029Z,101100.27
2022-10-24T20:33:57.627Z,101100.23
2022-10-24T20:36:31.586Z,101101.66
2022-10-24T20:39:03.958Z,101096.39
2022-10-24T20:41:36.572Z,101094.48
2022-10-24T20:44:14.888Z,101094.58
2022-10-24T20:46:55.562Z,101095.92
2022-10-24T20:49:27.927Z,101095.55
2022-10-24T20:51:58.581Z,101095.84
2022-10-24T20:54:31.387Z,101095.94
2022-10-24T20:57:05.555Z,101089.07
2022-10-24T20:59:39.167Z,101086.20
2022-10-24T21:02:12.040Z,101086.30
2022-10-24T21:04:44.241Z,101090.95
2022-10-24T21:07:16.406Z,101091.77
2022-10-24T21:09:48.684Z,101092.27
2022-10-24T21:12:20.892Z,101093.02
2022-10-24T21:14:53.213Z,101090.08
2022-10-24T21:20:02.887Z,101084.52
2022-10-24T21:22:35.163Z,101084.49
2022-10-24T21:25:08.125Z,101081.83
2022-10-24T21:27:40.413Z,101080.39
2022-10-24T21:30:14.899Z,101079.69
2022-10-24T21:32:47.335Z,101075.90
2022-10-24T21:35:19.763Z,101077.67
2022-10-24T21:37:50.414Z,101075.75
2022-10-24T21:40:22.696Z,101079.81
2022-10-24T21:42:54.929Z,101078.80
2022-10-24T21:45:27.102Z,101083.45
2022-10-24T21:47:59.314Z,101086.64
2022-10-24T21:50:31.700Z,101085.30
2022-10-24T21:53:03.896Z,101075.58
2022-10-24T21:55:36.021Z,101073.42
2022-10-24T21:58:08.278Z,101075.52
2022-10-24T22:00:40.520Z,101075.88
2022-10-24T22:03:12.724Z,101072.64
2022-10-24T22:15:04.029Z,101075.88
2022-10-24T22:17:32.902Z,101076.83
2022-10-24T22:20:01.638Z,101072.80
2022-10-24T22:22:30.574Z,101067.69
2022-10-24T22:24:59.312Z,101068.72
2022-10-24T22:27:28.049Z,101067.57
2022-10-24T22:29:56.785Z,101066.00
2022-10-24T22:34:57.134Z,101063.09
2022-10-24T22:37:29.246Z,101064.89
2022-10-24T22:39:58.987Z,101068.48
2022-10-24T22:42:28.594Z,101069.19
2022-10-24T22:44:58.610Z,101064.50
2022-10-24T22:48:02.471Z,101065.36
2022-10-24T22:50:51.473Z,101067.19
2022-10-24T22:53:22.873Z,101070.14
2022-10-24T22:56:01.431Z,101070.91
2022-10-24T22:58:31.317Z,101071.01
2022-10-24T23:01:04.533Z,101070.36
2022-10-24T23:03:41.054Z,101067.48
2022-10-24T23:06:14.195Z,101068.56
2022-10-24T23:08:44.039Z,101064.17
2022-10-24T23:11:14.187Z,101065.27
2022-10-24T23:13:44.124Z,101067.60
2022-10-24T23:16:24.050Z,101068.94
2022-10-24T23:18:53.933Z,101065.60
2022-10-24T23:21:28.745Z,101060.52
2022-10-24T23:23:58.408Z,101059.23
2022-10-24T23:26:33.769Z,101060.84
2022-10-24T23:29:09.040Z,101063.64
2022-10-24T23:31:38.835Z,101068.16
2022-10-24T23:34:10.348Z,101068.55
2022-10-24T23:36:41.897Z,101064.53
2022-10-24T23:39:11.730Z,101061.03
2022-10-24T23:41:42.254Z,101058.46
2022-10-24T23:44:12.367Z,101052.45
2022-10-24T23:46:46.532Z,101057.10
2022-10-24T23:49:23.099Z,101060.97
2022-10-24T23:51:59.452Z,101056.85
2022-10-24T23:54:32.610Z,101052.66
2022-10-24T23:57:02.657Z,101046.44
2022-10-24T23:59:31.380Z,101043.83
